Flight Track Log - Related Links

Times and Time Zones

All times are in EDT time to prevent confusion due to time zone crossing. See the N950ME flight status page for this flight to view local times or setup timezone preferences in your user account.

Time Position Orientation Groundspeed Altitude Reporting Facility
EDT Latitude Longitude Course Direction KTS MPH feet Rate Location/Type
Sun 12:18:38 PM 34.0667 -84.6167 North 81 93 2,600  Level Atlanta TRACON
Sun 12:19:19 PM 34.0850 -84.6156 North 86 99 2,800 356 Climbing Atlanta Center
Sun 12:20:19 PM 34.1039 -84.6083 18° North 86 99 3,200 450 Climbing Atlanta Center
Sun 12:21:19 PM 34.1247 -84.5983 22° Northeast 98 113 3,700 450 Climbing Atlanta Center
Sun 12:22:19 PM 34.1478 -84.5836 28° Northeast 92 106 4,100 400 Climbing Atlanta Center
Sun 12:23:19 PM 34.1708 -84.5711 24° Northeast 87 100 4,500 400 Climbing Atlanta Center
Sun 12:24:19 PM 34.1919 -84.5561 30° Northeast 87 100 4,900 400 Climbing Atlanta Center
Sun 12:25:19 PM 34.2147 -84.5411 29° Northeast 87 100 5,300 350 Climbing Atlanta Center
Sun 12:26:19 PM 34.2378 -84.5264 28° Northeast 87 100 5,600 300 Climbing Atlanta Center
Sun 12:27:19 PM 34.2589 -84.5114 30° Northeast 87 100 5,900 200 Climbing Atlanta Center
Sun 12:28:19 PM 34.2861 -84.4964 24° Northeast 97 112 6,000 50 Climbing Atlanta Center
Sun 12:29:19 PM 34.3111 -84.4789 30° Northeast 102 117 6,000  Level Atlanta Center
Sun 12:30:19 PM 34.3403 -84.4589 30° Northeast 102 117 6,000 250 Level Atlanta Center
Sun 12:31:19 PM 34.3656 -84.4439 26° Northeast 102 117 6,500 400 Climbing Atlanta Center
Sun 12:32:19 PM 34.3842 -84.4314 29° Northeast 92 106 6,800 250 Climbing Atlanta Center
Sun 12:33:19 PM 34.4094 -84.4139 30° Northeast 87 100 7,000 100 Climbing Atlanta Center
Sun 12:34:19 PM 34.4325 -84.3964 32° Northeast 99 114 7,000  Level Atlanta Center
Sun 12:35:19 PM 34.4575 -84.3689 42° Northeast 111 128 7,000  Level Atlanta Center
Sun 12:36:19 PM 34.4783 -84.3411 48° Northeast 111 128 7,000  Level Atlanta Center
Sun 12:37:19 PM 34.4994 -84.3083 52° Northeast 111 128 7,000  Level Atlanta Center
Sun 12:38:19 PM 34.5203 -84.2783 50° Northeast 111 128 7,000  Level Atlanta Center
Sun 12:39:19 PM 34.5414 -84.2481 50° Northeast 111 128 7,000  Level Atlanta Center
Sun 12:40:19 PM 34.5622 -84.2153 52° Northeast 106 122 7,000  Level Atlanta Center
Sun 12:41:19 PM 34.5853 -84.1878 44° Northeast 113 130 7,000  Level Atlanta Center
Sun 12:42:19 PM 34.6039 -84.1550 55° Northeast 113 130 7,000  Level Atlanta Center
Sun 12:43:19 PM 34.6269 -84.1272 45° Northeast 113 130 7,000  Level Atlanta Center
Sun 12:44:19 PM 34.6458 -84.0944 55° Northeast 113 130 7,000  Level Atlanta Center
Sun 12:45:19 PM 34.6667 -84.0717 42° Northeast 107 123 7,000  Level Atlanta Center
Sun 12:46:19 PM 34.6875 -84.0414 50° Northeast 107 123 7,000  Level Atlanta Center
Sun 12:47:19 PM 34.7083 -84.0111 50° Northeast 107 123 7,000  Level Atlanta Center
Sun 12:48:19 PM 34.7292 -83.9806 50° Northeast 107 123 7,000  Level Atlanta Center
Sun 12:49:19 PM 34.7481 -83.9503 53° Northeast 107 123 7,000 50 Level Atlanta Center
Sun 12:50:19 PM 34.7689 -83.9200 50° Northeast 107 123 7,100 200 Climbing Atlanta Center
Sun 12:51:19 PM 34.7875 -83.8894 53° Northeast 107 123 7,400 300 Climbing Atlanta Center
Sun 12:52:19 PM 34.8022 -83.8617 57° Northeast 107 123 7,700 250 Climbing Atlanta Center
Sun 12:53:19 PM 34.8189 -83.8364 51° Northeast 97 112 7,900 100 Climbing Atlanta Center
Sun 12:54:19 PM 34.8356 -83.8111 51° Northeast 97 112 7,900  Level Atlanta Center
Sun 12:55:19 PM 34.8583 -83.7756 52° Northeast 103 119 7,900  Level Atlanta Center
Sun 12:56:19 PM 34.8769 -83.7425 56° Northeast 110 127 7,900  Level Atlanta Center
Sun 12:57:19 PM 34.8978 -83.7119 50° Northeast 117 135 7,900  Level Atlanta Center
Sun 12:58:19 PM 34.9208 -83.6842 45° Northeast 112 129 7,900  Level Atlanta Center
Sun 12:59:19 PM 34.9394 -83.6611 45° Northeast 107 123 7,900  Level Atlanta Center
Sun 01:00:19 PM 34.9581 -83.6308 53° Northeast 107 123 7,900  Level Atlanta Center
Sun 01:01:19 PM 34.9808 -83.6003 48° Northeast 107 123 7,900  Level Atlanta Center
Sun 01:02:19 PM 34.9997 -83.5722 51° Northeast 107 123 7,900  Level Atlanta Center
Sun 01:03:19 PM 35.0225 -83.5342 54° Northeast 112 129 7,900 50 Level Atlanta Center
Sun 01:04:19 PM 35.0475 -83.5086 40° Northeast 112 129 8,000 50 Climbing Atlanta Center
Sun 01:05:19 PM 35.0703 -83.4831 43° Northeast 112 129 8,000 150 Level Atlanta Center
Sun 01:06:19 PM 35.0889 -83.4575 48° Northeast 112 129 8,300 200 Climbing Atlanta Center
Sun 01:07:19 PM 35.1033 -83.4319 55° Northeast 99 114 8,400 200 Climbing Atlanta Center
Sun 01:08:19 PM 35.1178 -83.4089 53° Northeast 88 101 8,700 250 Climbing Atlanta Center
Sun 01:09:19 PM 35.1322 -83.3886 49° Northeast 82 94 8,900 100 Climbing Atlanta Center
Sun 01:10:19 PM 35.1489 -83.3631 51° Northeast 82 94 8,900 50 Level Atlanta Center
Sun 01:11:19 PM 35.1717 -83.3297 50° Northeast 96 110 9,000  Climbing Atlanta Center
Sun 01:12:19 PM 35.1903 -83.2967 55° Northeast 110 127 8,900 -50 Descending Atlanta Center
Sun 01:13:19 PM 35.2131 -83.2711 43° Northeast 110 127 8,900  Level Atlanta Center
Sun 01:14:19 PM 35.2317 -83.2403 54° Northeast 110 127 8,900  Level Atlanta Center
Sun 01:15:19 PM 35.2564 -83.2019 52° Northeast 119 137 8,900  Level Atlanta Center
Sun 01:16:19 PM 35.2769 -83.1711 51° Northeast 119 137 8,900  Level Atlanta Center
Sun 01:17:19 PM 35.2978 -83.1431 48° Northeast 114 131 8,900  Level Atlanta Center
Sun 01:18:19 PM 35.3206 -83.1122 48° Northeast 109 125 8,900  Level Atlanta Center
Sun 01:19:19 PM 35.3389 -83.0789 56° Northeast 109 125 8,900  Level Atlanta Center
Sun 01:20:19 PM 35.3617 -83.0506 45° Northeast 109 125 8,900  Level Atlanta Center
Sun 01:21:19 PM 35.3864 -83.0222 43° Northeast 109 125 8,900  Level Atlanta Center
Sun 01:22:19 PM 35.4114 -82.9939 43° Northeast 119 137 8,900  Level Atlanta Center
Sun 01:23:19 PM 35.4319 -82.9656 48° Northeast 119 137 8,900 50 Level Atlanta Center
Sun 01:24:19 PM 35.4525 -82.9322 53° Northeast 119 137 9,000  Climbing Atlanta Center
Sun 01:25:19 PM 35.4753 -82.9014 48° Northeast 119 137 8,900 -50 Descending Atlanta Center
Sun 01:26:19 PM 35.4958 -82.8731 48° Northeast 113 130 8,900  Level Atlanta Center
Sun 01:27:19 PM 35.5183 -82.8419 48° Northeast 118 136 8,900  Level Atlanta Center
Sun 01:28:19 PM 35.5389 -82.8111 51° Northeast 118 136 8,900  Level Atlanta Center
Sun 01:29:19 PM 35.5511 -82.7753 67° East 113 130 8,900  Level Atlanta Center
Sun 01:30:19 PM 35.5633 -82.7392 67° East 113 130 8,900  Level Atlanta Center
Sun 01:31:19 PM 35.5711 -82.6983 77° East 113 130 8,900  Level Atlanta Center
Sun 01:33:00 PM 35.5966 -82.6468 51° Northeast  Level FlightAware Approximate
Sun 01:37:31 PM 35.7003 -82.5019 51° Northeast 115 132 8,900  Level Atlanta Center
Sun 01:38:31 PM 35.7250 -82.4758 41° Northeast 115 132 8,900  Level Atlanta Center
Sun 01:39:31 PM 35.7433 -82.4472 52° Northeast 126 145 8,900  Level Atlanta Center
Sun 01:40:00 PM 35.7265 -82.4522 51° Northeast  Level FlightAware Approximate
Sun 01:40:31 PM 35.7658 -82.4186 46° Northeast 121 139 8,900  Level Atlanta Center
Sun 01:41:00 PM 35.7450 -82.4244 51° Northeast  Level FlightAware Approximate
Sun 01:41:31 PM 35.7842 -82.3850 56° Northeast 116 133 8,900  Level Atlanta Center
Sun 01:42:00 PM 35.7635 -82.3966 51° Northeast  Level FlightAware Approximate
Sun 01:42:31 PM 35.8069 -82.3539 48° Northeast 116 133 8,900  Level Atlanta Center
Sun 01:43:31 PM 35.8272 -82.3228 51° Northeast 116 133 8,900 50 Level Atlanta Center
Sun 01:44:31 PM 35.8519 -82.2967 41° Northeast 116 133 9,000  Climbing Atlanta Center
Sun 01:45:31 PM 35.8744 -82.2653 48° Northeast 116 133 8,900 -50 Descending Atlanta Center
Sun 01:46:31 PM 35.8950 -82.2367 48° Northeast 121 139 8,900  Level Atlanta Center
Sun 01:47:31 PM 35.9172 -82.2056 49° Northeast 121 139 8,900  Level Atlanta Center
Sun 01:48:31 PM 35.9378 -82.1742 51° Northeast 116 133 8,900  Level Atlanta Center
Sun 01:49:31 PM 35.9622 -82.1378 50° Northeast 121 139 8,900  Level Atlanta Center
Sun 01:50:31 PM 35.9825 -82.1064 51° Northeast 121 139 8,900  Level Atlanta Center
Sun 01:51:31 PM 36.0050 -82.0725 51° Northeast 121 139 8,900  Level Atlanta Center
Sun 01:52:31 PM 36.0275 -82.0464 43° Northeast 115 132 8,900  Level Atlanta Center
Sun 01:53:31 PM 36.0564 -82.0225 34° Northeast 115 132 8,900 50 Level Atlanta Center
Sun 01:54:31 PM 36.0808 -81.9961 41° Northeast 110 127 9,000  Climbing Atlanta Center
Sun 01:55:31 PM 36.1053 -81.9647 46° Northeast 110 127 8,900  Descending Atlanta Center
Sun 01:56:31 PM 36.1319 -81.9383 39° Northeast 117 135 9,000  Climbing Atlanta Center
Sun 01:57:31 PM 36.1586 -81.9094 41° Northeast 122 140 8,900 -50 Descending Atlanta Center
Sun 01:58:31 PM 36.1769 -81.8831 49° Northeast 122 140 8,900 50 Level Atlanta Center
Sun 01:59:31 PM 36.1972 -81.8517 51° Northeast 117 135 9,000  Climbing Atlanta Center
Sun 02:00:31 PM 36.2194 -81.8150 53° Northeast 117 135 8,900 -50 Descending Atlanta Center
Sun 02:01:31 PM 36.2419 -81.7836 48° Northeast 122 140 8,900 50 Level Atlanta Center
Sun 02:02:31 PM 36.2642 -81.7519 49° Northeast 122 140 9,000  Climbing Atlanta Center
Sun 02:03:31 PM 36.2867 -81.7181 51° Northeast 117 135 8,900 -50 Descending Atlanta Center
Sun 02:04:31 PM 36.3089 -81.6839 51° Northeast 117 135 8,900  Level Atlanta Center
Sun 02:05:31 PM 36.3292 -81.6575 46° Northeast 117 135 8,900  Level Atlanta Center
Sun 02:06:32 PM 36.3472 -81.6233 57° Northeast 117 135 8,900  Level Atlanta Center
Sun 02:07:31 PM 36.3697 -81.5892 51° Northeast 117 135 8,900  Level Atlanta Center
Sun 02:08:31 PM 36.3897 -81.5578 52° Northeast 117 135 8,900  Level Atlanta Center
Sun 02:09:31 PM 36.4100 -81.5261 51° Northeast 117 135 8,900  Level Atlanta Center
Sun 02:10:31 PM 36.4303 -81.4919 54° Northeast 117 135 8,900  Level Atlanta Center
Sun 02:11:31 PM 36.4525 -81.4603 49° Northeast 117 135 8,900 50 Level Atlanta Center
Sun 02:12:31 PM 36.4706 -81.4314 52° Northeast 117 135 9,000  Climbing Atlanta Center
Sun 02:13:31 PM 36.4908 -81.3969 54° Northeast 117 135 8,900 -50 Descending Atlanta Center
Sun 02:14:31 PM 36.5131 -81.3628 51° Northeast 112 129 8,900  Level Atlanta Center
Sun 02:15:31 PM 36.5353 -81.3283 51° Northeast 112 129 8,900  Level Atlanta Center
Sun 02:16:31 PM 36.5533 -81.2994 52° Northeast 112 129 8,900  Level Atlanta Center
Sun 02:17:31 PM 36.5753 -81.2597 55° Northeast 107 123 8,900  Level Atlanta Center
Sun 02:18:31 PM 36.5975 -81.2281 49° Northeast 112 129 8,900  Level Atlanta Center
Sun 02:19:31 PM 36.6175 -81.1936 54° Northeast 112 129 8,900  Level Atlanta Center
Sun 02:20:31 PM 36.6375 -81.1594 54° Northeast 112 129 8,900  Level Atlanta Center
Sun 02:21:31 PM 36.6578 -81.1250 54° Northeast 107 123 8,900  Level Atlanta Center
Sun 02:22:31 PM 36.6736 -81.0881 62° Northeast 116 133 8,900  Level Atlanta Center
Sun 02:23:31 PM 36.6956 -81.0536 52° Northeast 121 139 8,900 50 Level Atlanta Center
Sun 02:24:31 PM 36.7114 -81.0142 63° Northeast 121 139 9,000  Climbing Atlanta Center
Sun 02:25:31 PM 36.7311 -80.9772 56° Northeast 121 139 8,900 -50 Descending Atlanta Center
Sun 02:26:31 PM 36.7494 -80.9506 49° Northeast 115 132 8,900  Level Atlanta Center
Sun 02:27:31 PM 36.7733 -80.9133 51° Northeast 115 132 8,900  Level Atlanta Center
Sun 02:28:31 PM 36.7933 -80.8789 54° Northeast 115 132 8,900  Level Atlanta Center
Sun 02:29:31 PM 36.8175 -80.8442 49° Northeast 115 132 8,900  Level Atlanta Center
Sun 02:30:31 PM 36.8356 -80.8125 55° Northeast 115 132 8,900  Level Atlanta Center
Sun 02:31:31 PM 36.8556 -80.7806 52° Northeast 115 132 8,900  Level Atlanta Center
Sun 02:32:31 PM 36.8775 -80.7483 50° Northeast 115 132 8,900  Level Atlanta Center
Sun 02:34:00 PM 36.9022 -80.7012 57° Northeast  Level FlightAware Approximate
Sun 02:41:00 PM 37.0187 -80.4782 57° Northeast  Level FlightAware Approximate
Sun 02:42:00 PM 37.0356 -80.4464 51° Northeast  Level FlightAware Approximate
Sun 02:43:00 PM 37.0547 -80.4168 51° Northeast  Level FlightAware Approximate
Sun 02:44:00 PM 37.0738 -80.3871 51° Northeast  Level FlightAware Approximate
Sun 02:45:00 PM 37.0929 -80.3575 51° Northeast  Level FlightAware Approximate
Sun 02:46:00 PM 37.1120 -80.3278 51° Northeast  Level FlightAware Approximate
Sun 02:47:00 PM 37.1311 -80.2981 51° Northeast  Level FlightAware Approximate
Sun 02:48:00 PM 37.1502 -80.2684 51° Northeast  Level FlightAware Approximate
Sun 02:49:00 PM 37.1692 -80.2387 51° Northeast  Level FlightAware Approximate
Sun 02:50:00 PM 37.1879 -80.2086 54° Northeast  Level FlightAware Approximate
Sun 02:51:00 PM 37.2057 -80.1776 54° Northeast  Level FlightAware Approximate
Sun 02:52:00 PM 37.2234 -80.1466 54° Northeast  Level FlightAware Approximate
Sun 02:53:00 PM 37.2412 -80.1156 54° Northeast  Level FlightAware Approximate
Sun 02:54:00 PM 37.2589 -80.0846 54° Northeast  Level FlightAware Approximate
Sun 02:55:00 PM 37.2812 -80.0583 43° Northeast  Level FlightAware Approximate
Sun 02:56:00 PM 37.3034 -80.0321 43° Northeast  Level FlightAware Approximate
Sun 02:57:00 PM 37.3256 -80.0058 43° Northeast  Level FlightAware Approximate
Sun 02:58:00 PM 37.3479 -79.9795 43° Northeast  Level FlightAware Approximate
Sun 02:59:00 PM 37.3701 -79.9532 43° Northeast  Level FlightAware Approximate
Sun 03:00:00 PM 37.3923 -79.9269 43° Northeast  Level FlightAware Approximate
Sun 03:01:00 PM 37.4145 -79.9005 43° Northeast  Level FlightAware Approximate
Sun 03:02:00 PM 37.4367 -79.8742 43° Northeast  Level FlightAware Approximate
Sun 03:02:25 PM 37.5014 -79.7203 43° Northeast 123 142 8,900  Level Washington Center
Sun 03:03:00 PM 37.4590 -79.8478 43° Northeast  Level FlightAware Approximate
Sun 03:03:23 PM 37.5258 -79.6822 51° Northeast 123 142 8,900  Level Washington Center
Sun 03:04:00 PM 37.4812 -79.8214 43° Northeast  Level FlightAware Approximate
Sun 03:04:24 PM 37.5436 -79.6517 54° Northeast 138 159 8,900  Level Washington Center
Sun 03:05:00 PM 37.5033 -79.7950 43° Northeast  Level FlightAware Approximate
Sun 03:05:25 PM 37.5656 -79.6136 54° Northeast 126 145 8,900  Level Washington Center
Sun 03:06:00 PM 37.5255 -79.7686 43° Northeast  Level FlightAware Approximate
Sun 03:06:25 PM 37.5875 -79.5833 48° Northeast 126 145 8,900  Level Washington Center
Sun 03:07:24 PM 37.6094 -79.5478 52° Northeast 121 139 8,900  Level Washington Center
Sun 03:08:24 PM 37.6294 -79.5147 53° Northeast 121 139 8,900  Level Washington Center
Sun 03:09:25 PM 37.6536 -79.4792 49° Northeast 121 139 8,900  Level Washington Center
Sun 03:10:24 PM 37.6714 -79.4461 56° Northeast 121 139 8,900  Level Washington Center
Sun 03:11:24 PM 37.6975 -79.4081 49° Northeast 121 139 8,900 50 Level Washington Center
Sun 03:12:25 PM 37.7214 -79.3778 45° Northeast 121 139 9,000 50 Climbing Washington Center
Sun 03:13:23 PM 37.7411 -79.3444 53° Northeast 121 139 9,000  Level Washington Center
Sun 03:14:23 PM 37.7633 -79.3089 52° Northeast 126 145 9,000  Level Washington Center
Sun 03:15:25 PM 37.7831 -79.2783 51° Northeast 126 145 9,000  Level Washington Center
Sun 03:16:23 PM 37.8028 -79.2450 53° Northeast 121 139 9,000  Level Washington Center
Sun 03:17:23 PM 37.8267 -79.2094 50° Northeast 121 139 9,000 -50 Level Washington Center
Sun 03:18:23 PM 37.8464 -79.1789 51° Northeast 121 139 8,900 -50 Descending Washington Center
Sun 03:19:24 PM 37.8706 -79.1406 51° Northeast 126 145 8,900  Level Washington Center
Sun 03:20:25 PM 37.8903 -79.1100 51° Northeast 121 139 8,900  Level Washington Center
Sun 03:21:23 PM 37.9142 -79.0767 48° Northeast 116 133 8,900  Level Washington Center
Sun 03:22:25 PM 37.9358 -79.0436 50° Northeast 116 133 8,900  Level Washington Center
Sun 03:24:06 PM 37.9667 -78.9833 57° Northeast 124 143 8,900  Level Potomac TRACON
Sun 03:25:06 PM 38.0000 -78.9500 38° Northeast 120 138 8,900  Level Potomac TRACON
Sun 03:26:06 PM 38.0167 -78.9167 58° Northeast 120 138 8,900 50 Level Potomac TRACON
Sun 03:27:06 PM 38.0333 -78.8833 58° Northeast 125 144 9,000 50 Climbing Potomac TRACON
Sun 03:28:06 PM 38.0667 -78.8500 38° Northeast 126 145 9,000  Level Potomac TRACON
Sun 03:29:06 PM 38.0833 -78.8167 58° Northeast 130 150 9,000 -52 Level Potomac TRACON
Sun 03:30:01 PM 38.1000 -78.8000 38° Northeast 134 154 8,900 -52 Descending Potomac TRACON
Sun 03:31:01 PM 38.1333 -78.7667 38° Northeast 124 143 8,900  Level Potomac TRACON
Sun 03:32:01 PM 38.1500 -78.7167 67° East 124 143 8,900  Level Potomac TRACON
Sun 03:33:07 PM 38.1500 -78.6667 90° East 132 152 8,900  Level Potomac TRACON
Sun 03:34:01 PM 38.1500 -78.6333 90° East 125 144 8,900 -53 Level Potomac TRACON
Sun 03:35:01 PM 38.1667 -78.5833 67° East 129 148 8,800  Descending Potomac TRACON
Sun 03:36:01 PM 38.1500 -78.5500 122° Southeast 116 133 8,900  Climbing Potomac TRACON
Sun 03:36:56 PM 38.1333 -78.5167 122° Southeast 127 146 8,800 -52 Descending Potomac TRACON
Sun 03:37:56 PM 38.1167 -78.4833 122° Southeast 125 144 8,800  Level Potomac TRACON
Sun 03:38:56 PM 38.1000 -78.4500 122° Southeast 122 140 8,800  Level Potomac TRACON
Sun 03:39:57 PM 38.0833 -78.4167 122° Southeast 115 132 8,800  Level Potomac TRACON
Sun 03:40:57 PM 38.0833 -78.3667 90° East 124 143 8,800  Level Potomac TRACON
Sun 03:41:57 PM 38.0833 -78.3333 90° East 123 142 8,800 52 Level Potomac TRACON
Sun 03:42:52 PM 38.0833 -78.3000 90° East 132 152 8,900  Climbing Potomac TRACON
Sun 03:43:52 PM 38.1000 -78.2500 67° East 120 138 8,800 -53 Descending Potomac TRACON
Sun 03:44:46 PM 38.1167 -78.2167 58° Northeast 125 144 8,800  Level Potomac TRACON
Sun 03:45:52 PM 38.1333 -78.1833 58° Northeast 116 133 8,800 48 Level Potomac TRACON
Sun 03:46:52 PM 38.1333 -78.1333 90° East 123 142 8,900 99 Climbing Potomac TRACON
Sun 03:47:53 PM 38.1333 -78.1000 90° East 126 145 9,000  Climbing Potomac TRACON
Sun 03:48:53 PM 38.1500 -78.0667 58° Northeast 121 139 8,900 -100 Descending Potomac TRACON
Sun 03:49:53 PM 38.1833 -78.0333 38° Northeast 116 133 8,800 -52 Descending Potomac TRACON
Sun 03:50:48 PM 38.2000 -78.0000 58° Northeast 118 136 8,800  Level Potomac TRACON
Sun 03:51:48 PM 38.2167 -77.9667 58° Northeast 118 136 8,800 -300 Level Potomac TRACON
Sun 03:52:48 PM 38.2333 -77.9333 58° Northeast 142 163 8,200 -650 Descending Potomac TRACON
Sun 03:53:48 PM 38.2667 -77.9000 38° Northeast 147 169 7,500 -750 Descending Potomac TRACON
Sun 03:54:48 PM 38.3000 -77.8500 50° Northeast 150 173 6,700 -800 Descending Potomac TRACON
Sun 03:55:48 PM 38.3167 -77.8167 57° Northeast 147 169 5,900 -750 Descending Potomac TRACON
Sun 03:56:48 PM 38.3500 -77.7833 38° Northeast 143 165 5,200 -500 Descending Potomac TRACON
Sun 03:57:48 PM 38.3667 -77.7500 57° Northeast 127 146 4,900 -150 Descending Potomac TRACON
Sun 03:58:48 PM 38.4000 -77.7167 38° Northeast 126 145 4,900  Level Potomac TRACON
Sun 03:59:48 PM 38.4167 -77.6833 57° Northeast 125 144 4,900 -298 Level Potomac TRACON
Sun 04:00:49 PM 38.4333 -77.6333 67° East 134 154 4,300 -522 Descending Potomac TRACON
Sun 04:01:43 PM 38.4333 -77.6000 90° East 133 153 3,900 -211 Descending Potomac TRACON
Sun 04:02:43 PM 38.4500 -77.5500 67° East 117 135 3,900  Level Potomac TRACON
Sun 04:03:43 PM 38.4500 -77.5167 90° East 117 135 3,900  Level Potomac TRACON
Sun 04:04:43 PM 38.4667 -77.4667 67° East 120 138 3,900  Level Potomac TRACON
Sun 04:05:43 PM 38.4667 -77.4333 90° East 123 142 3,900 -400 Level Potomac TRACON
Sun 04:06:43 PM 38.5000 -77.4000 38° Northeast 139 160 3,100 -500 Descending Potomac TRACON
Sun 04:07:43 PM 38.5167 -77.3667 57° Northeast 124 143 2,900 -100 Descending Potomac TRACON
Sun 04:08:43 PM 38.5500 -77.3500 21° North 117 135 2,900  Level Potomac TRACON
Sun 04:09:43 PM 38.5833 -77.3500 360° North 113 130 2,900 -300 Level Potomac TRACON
Sun 04:10:43 PM 38.6000 -77.3833 303° West 131 151 2,300 -550 Descending Potomac TRACON
Sun 04:11:43 PM 38.6333 -77.4167 322° Northwest 123 142 1,800 -381 Descending Potomac TRACON
Sun 04:12:49 PM 38.6667 -77.4500 322° Northwest 120 138 1,500 -347 Descending Potomac TRACON
Sun 04:13:44 PM 38.6833 -77.4667 322° Northwest 114 131 1,100 -522 Descending Potomac TRACON
Sun 04:14:44 PM 38.7000 -77.5000 303° West 102 117 500 -600 Descending Potomac TRACON
Sun 04:16:00 PM 38.7167 -77.5000 340° North  Level FlightAware Approximate
Sun 04:23:00 PM 38.7210 -77.5151 340° North  Level Estimated
Sun 04:24:00 PM 38.7210 -77.5151 340° North  Level Estimated
Sun 04:25:00 PM 38.7210 -77.5151 340° North  Level Estimated
Sun 04:26:00 PM 38.7210 -77.5151 340° North  Level Estimated

Login

Don't have an account? Register now (free) for customized features, flight alerts, and more!